Time;durP1;ratioP1;P1;durP2;ratioP2;P2;SDS_P1;SDS_P2;PMS_P1;PMS_P2;Temp;Humidity;BMP_temperature;BMP_pressure;BME280_temperature;BME280_humidity;BME280_pressure;Samples;Min_cycle;Max_cycle;Signal;HPM_P1;HPM_P2
2021/12/12 00:00:14;;;;;;;65.88;7.60;;;;;;;;;;5072242;28;20708;-64
2021/12/12 00:02:56;;;;;;;65.07;7.65;;;;;;;;;;5071839;28;20239;-64
2021/12/12 00:05:24;;;;;;;71.50;8.45;;;;;;;;;;5071806;28;20211;-65
2021/12/12 00:07:51;;;;;;;70.88;7.65;;;;;;;;;;5069490;28;20694;-64
2021/12/12 00:10:20;;;;;;;64.57;8.02;;;;;;;;;;5072172;28;20225;-65
2021/12/12 00:12:49;;;;;;;68.30;7.53;;;;;;;;;;5071500;28;20229;-65
2021/12/12 00:15:19;;;;;;;69.10;7.63;;;;;;;;;;5071849;28;20215;-65
2021/12/12 00:17:46;;;;;;;69.22;8.05;;;;;;;;;;5071444;28;20208;-64
2021/12/12 00:20:15;;;;;;;63.50;7.65;;;;;;;;;;5072036;28;20229;-64
2021/12/12 00:22:42;;;;;;;64.90;7.70;;;;;;;;;;5071714;28;20216;-64
2021/12/12 00:25:10;;;;;;;63.85;7.63;;;;;;;;;;5071402;28;20205;-64
2021/12/12 00:27:37;;;;;;;65.63;7.82;;;;;;;;;;5071671;28;20588;-64
2021/12/12 00:30:05;;;;;;;65.90;7.40;;;;;;;;;;5071860;28;20256;-64
2021/12/12 00:32:36;;;;;;;67.13;7.72;;;;;;;;;;5071588;28;20720;-65
2021/12/12 00:35:06;;;;;;;66.20;8.18;;;;;;;;;;5071609;28;20205;-65
2021/12/12 00:37:33;;;;;;;64.55;7.78;;;;;;;;;;5070970;28;20239;-64
2021/12/12 00:40:02;;;;;;;63.60;7.20;;;;;;;;;;5059827;28;20240;-64
2021/12/12 00:42:33;;;;;;;63.30;6.97;;;;;;;;;;5051501;28;20614;-64
2021/12/12 00:45:01;;;;;;;65.10;8.07;;;;;;;;;;5051244;28;20206;-64
2021/12/12 00:47:28;;;;;;;65.60;7.20;;;;;;;;;;5051068;28;20785;-64
2021/12/12 00:49:57;;;;;;;66.40;7.30;;;;;;;;;;5051600;28;20229;-64
2021/12/12 00:52:24;;;;;;;66.30;7.35;;;;;;;;;;5051385;28;20231;-64
2021/12/12 00:54:52;;;;;;;68.63;6.65;;;;;;;;;;5050915;28;20244;-65
2021/12/12 00:57:21;;;;;;;64.05;7.28;;;;;;;;;;5050833;28;20292;-64
2021/12/12 00:59:48;;;;;;;70.13;7.93;;;;;;;;;;5051375;28;20235;-63
2021/12/12 01:02:17;;;;;;;64.15;6.55;;;;;;;;;;5051387;28;20197;-64
2021/12/12 01:04:46;;;;;;;64.45;6.78;;;;;;;;;;5050864;28;20459;-64
2021/12/12 01:07:16;;;;;;;65.70;7.43;;;;;;;;;;5051109;28;20236;-65
2021/12/12 01:09:46;;;;;;;66.18;6.63;;;;;;;;;;5051534;28;20600;-64
2021/12/12 01:12:15;;;;;;;65.13;7.10;;;;;;;;;;5062161;28;20225;-64
2021/12/12 01:14:44;;;;;;;72.18;7.65;;;;;;;;;;5070964;28;20212;-64
2021/12/12 01:17:13;;;;;;;61.95;6.45;;;;;;;;;;5070586;28;20562;-64
2021/12/12 01:19:43;;;;;;;66.10;6.80;;;;;;;;;;5071231;28;20227;-64
2021/12/12 01:22:15;;;;;;;63.95;6.75;;;;;;;;;;5071344;28;20308;-64
2021/12/12 01:24:45;;;;;;;65.05;6.70;;;;;;;;;;5071024;28;20699;-64
2021/12/12 01:27:14;;;;;;;63.67;6.63;;;;;;;;;;5070674;28;20590;-65
2021/12/12 01:29:41;;;;;;;63.55;6.32;;;;;;;;;;5071009;28;20221;-64
2021/12/12 01:32:17;;;;;;;70.80;7.38;;;;;;;;;;5071346;28;20229;-64
2021/12/12 01:34:44;;;;;;;62.15;6.45;;;;;;;;;;5071171;28;20208;-64
2021/12/12 01:37:36;;;;;;;67.00;6.65;;;;;;;;;;5070318;28;20290;-63
2021/12/12 01:40:04;;;;;;;68.63;6.80;;;;;;;;;;5070752;28;20233;-64
2021/12/12 01:42:33;;;;;;;63.05;6.63;;;;;;;;;;5066733;28;20292;-65
2021/12/12 01:45:05;;;;;;;64.68;5.85;;;;;;;;;;5050664;28;20554;-64
2021/12/12 01:47:35;;;;;;;63.40;5.90;;;;;;;;;;5050526;28;20207;-65
2021/12/12 01:50:06;;;;;;;60.78;5.90;;;;;;;;;;5051060;28;20312;-65
2021/12/12 01:52:33;;;;;;;62.38;5.65;;;;;;;;;;5051527;28;20308;-64
2021/12/12 01:55:06;;;;;;;64.43;6.25;;;;;;;;;;5050455;28;20202;-63
2021/12/12 01:57:35;;;;;;;62.03;5.78;;;;;;;;;;5050506;28;20592;-65
2021/12/12 02:00:08;;;;;;;67.40;6.65;;;;;;;;;;5050643;28;20320;-64
2021/12/12 02:02:36;;;;;;;62.10;6.25;;;;;;;;;;5050938;28;20293;-64
2021/12/12 02:05:07;;;;;;;61.22;6.13;;;;;;;;;;5050418;28;20666;-63
2021/12/12 02:07:35;;;;;;;66.65;6.10;;;;;;;;;;5050689;28;20216;-65
2021/12/12 02:10:06;;;;;;;61.38;5.45;;;;;;;;;;5053143;28;20658;-64
2021/12/12 02:12:34;;;;;;;64.45;6.50;;;;;;;;;;5054394;28;20236;-64
2021/12/12 02:15:01;;;;;;;62.28;5.95;;;;;;;;;;5062374;28;20291;-64
2021/12/12 02:17:34;;;;;;;63.17;5.88;;;;;;;;;;5073646;28;20809;-64
2021/12/12 02:20:08;;;;;;;60.97;4.50;;;;;;;;;;5073921;28;20233;-64
2021/12/12 02:22:54;;;;;;;62.25;5.63;;;;;;;;;;5074154;28;20205;-64
2021/12/12 02:36:24;;;;;;;61.42;4.22;;;;;;;;;;5073167;28;20215;-64
2021/12/12 02:38:53;;;;;;;63.08;6.22;;;;;;;;;;5073110;28;20743;-64
2021/12/12 02:41:23;;;;;;;59.38;4.05;;;;;;;;;;5073760;28;20688;-65
2021/12/12 02:43:51;;;;;;;64.78;5.03;;;;;;;;;;5073434;28;20204;-65
2021/12/12 02:46:21;;;;;;;60.42;4.85;;;;;;;;;;5071408;28;20258;-65
2021/12/12 02:48:52;;;;;;;63.33;4.20;;;;;;;;;;5063245;28;20296;-65
2021/12/12 02:51:19;;;;;;;62.00;4.50;;;;;;;;;;5053633;28;20213;-65
2021/12/12 02:53:48;;;;;;;64.93;4.78;;;;;;;;;;5053687;28;20205;-65
2021/12/12 02:56:19;;;;;;;60.70;4.30;;;;;;;;;;5052900;28;20757;-65
2021/12/12 02:58:47;;;;;;;69.60;5.20;;;;;;;;;;5053014;28;20224;-64
2021/12/12 03:01:17;;;;;;;62.72;5.05;;;;;;;;;;5053609;28;20212;-65
2021/12/12 03:03:45;;;;;;;59.28;4.18;;;;;;;;;;5053360;28;20205;-65
2021/12/12 03:06:14;;;;;;;61.72;4.35;;;;;;;;;;5053179;28;20206;-65
2021/12/12 03:08:43;;;;;;;60.00;4.20;;;;;;;;;;5052468;28;20626;-64
2021/12/12 03:11:10;;;;;;;66.97;4.47;;;;;;;;;;5053284;28;20277;-65
2021/12/12 03:13:40;;;;;;;61.95;4.70;;;;;;;;;;5053330;28;20232;-65
2021/12/12 03:16:08;;;;;;;59.65;3.80;;;;;;;;;;5052637;28;20206;-65
2021/12/12 03:18:40;;;;;;;61.10;5.20;;;;;;;;;;5054259;28;20211;-65
2021/12/12 03:21:15;;;;;;;60.00;4.68;;;;;;;;;;5072616;28;20216;-65
2021/12/12 03:23:42;;;;;;;63.67;5.80;;;;;;;;;;5072804;28;20208;-65
2021/12/12 03:26:11;;;;;;;59.58;4.25;;;;;;;;;;5072869;28;20201;-65
2021/12/12 03:28:41;;;;;;;65.07;4.57;;;;;;;;;;5071864;28;20208;-64
2021/12/12 03:31:10;;;;;;;60.28;4.70;;;;;;;;;;5072916;28;20215;-65
2021/12/12 03:33:37;;;;;;;64.10;5.03;;;;;;;;;;5072694;28;20319;-65
2021/12/12 03:36:07;;;;;;;60.85;4.82;;;;;;;;;;5072093;28;20209;-65
2021/12/12 03:38:34;;;;;;;64.18;5.00;;;;;;;;;;5072019;28;20209;-65
2021/12/12 03:41:06;;;;;;;61.42;5.15;;;;;;;;;;5072467;28;20311;-65
2021/12/12 03:43:34;;;;;;;62.55;5.03;;;;;;;;;;5072758;28;20205;-65
2021/12/12 03:46:06;;;;;;;59.78;4.75;;;;;;;;;;5072136;28;20211;-65
2021/12/12 03:48:34;;;;;;;63.88;5.43;;;;;;;;;;5071410;28;20216;-65
2021/12/12 03:51:03;;;;;;;63.10;5.78;;;;;;;;;;5070805;28;20225;-65
2021/12/12 03:53:30;;;;;;;61.60;5.43;;;;;;;;;;5072629;28;20319;-65
2021/12/12 03:56:01;;;;;;;60.72;4.85;;;;;;;;;;5071965;28;20728;-64
2021/12/12 03:58:28;;;;;;;63.38;4.82;;;;;;;;;;5072405;28;20212;-65
2021/12/12 04:00:58;;;;;;;60.30;5.38;;;;;;;;;;5071672;28;20224;-65
2021/12/12 04:03:26;;;;;;;62.75;5.18;;;;;;;;;;5072264;28;20207;-64
2021/12/12 04:05:56;;;;;;;60.78;5.25;;;;;;;;;;5071932;28;20208;-65
2021/12/12 04:08:26;;;;;;;60.75;5.40;;;;;;;;;;5071249;28;20205;-65
2021/12/12 04:10:53;;;;;;;63.28;5.10;;;;;;;;;;5071952;28;20664;-65
2021/12/12 04:13:20;;;;;;;62.67;5.13;;;;;;;;;;5071915;28;20233;-65
2021/12/12 04:15:50;;;;;;;61.05;5.13;;;;;;;;;;5071852;28;20209;-64
2021/12/12 04:18:21;;;;;;;61.95;5.20;;;;;;;;;;5071693;28;20295;-65
2021/12/12 04:20:49;;;;;;;59.42;4.50;;;;;;;;;;5071447;28;20225;-65
2021/12/12 04:23:17;;;;;;;60.72;5.00;;;;;;;;;;5070229;28;20201;-65
2021/12/12 04:25:44;;;;;;;60.83;4.97;;;;;;;;;;5071505;28;20232;-64
2021/12/12 04:28:11;;;;;;;60.80;5.28;;;;;;;;;;5070968;28;20205;-65
2021/12/12 04:30:39;;;;;;;62.10;5.20;;;;;;;;;;5071622;28;20804;-65
2021/12/12 04:33:06;;;;;;;64.15;5.40;;;;;;;;;;5071280;28;20229;-65
2021/12/12 04:35:34;;;;;;;63.08;6.45;;;;;;;;;;5071620;28;20300;-65
2021/12/12 04:38:03;;;;;;;62.50;5.75;;;;;;;;;;5071126;28;20247;-65
2021/12/12 04:40:32;;;;;;;62.63;5.45;;;;;;;;;;5071525;28;20256;-64
2021/12/12 04:42:59;;;;;;;63.85;5.15;;;;;;;;;;5071685;28;20205;-65
2021/12/12 04:45:32;;;;;;;61.88;5.40;;;;;;;;;;5071520;28;20312;-65
2021/12/12 04:50:51;;;;;;;64.38;5.40;;;;;;;;;;5071466;28;20258;-64
2021/12/12 04:53:24;;;;;;;62.83;5.45;;;;;;;;;;5071418;28;20332;-65
2021/12/12 04:55:54;;;;;;;61.35;6.30;;;;;;;;;;5060297;28;20198;-64
2021/12/12 04:58:24;;;;;;;64.10;5.10;;;;;;;;;;5050972;28;20201;-64
2021/12/12 05:00:53;;;;;;;60.00;5.25;;;;;;;;;;5051022;28;20335;-65
2021/12/12 05:03:24;;;;;;;63.92;5.78;;;;;;;;;;5051448;28;20293;-64
2021/12/12 05:05:55;;;;;;;60.25;4.80;;;;;;;;;;5050923;28;20201;-64
2021/12/12 05:08:28;;;;;;;60.78;5.30;;;;;;;;;;5051027;28;20216;-65
2021/12/12 05:10:59;;;;;;;64.43;5.90;;;;;;;;;;5051204;28;20229;-65
2021/12/12 05:13:28;;;;;;;62.22;5.82;;;;;;;;;;5051429;28;20222;-65
2021/12/12 05:16:00;;;;;;;61.13;6.25;;;;;;;;;;5051133;28;20237;-64
2021/12/12 05:18:29;;;;;;;63.72;5.03;;;;;;;;;;5050568;28;20205;-65
2021/12/12 05:20:58;;;;;;;60.72;5.93;;;;;;;;;;5050715;28;20225;-65
2021/12/12 05:23:29;;;;;;;61.95;6.00;;;;;;;;;;5051209;28;20699;-65
2021/12/12 05:25:58;;;;;;;61.70;5.43;;;;;;;;;;5051218;28;20251;-65
2021/12/12 05:28:28;;;;;;;62.33;5.22;;;;;;;;;;5049387;28;20591;-64
2021/12/12 05:30:55;;;;;;;68.75;5.72;;;;;;;;;;5050983;28;20221;-65
2021/12/12 05:33:23;;;;;;;62.80;6.40;;;;;;;;;;5051268;28;20236;-65
2021/12/12 05:35:51;;;;;;;60.25;5.45;;;;;;;;;;5051158;28;20209;-65
2021/12/12 05:38:18;;;;;;;61.25;5.78;;;;;;;;;;5050287;28;20213;-65
2021/12/12 05:40:47;;;;;;;63.10;6.60;;;;;;;;;;5050637;28;20225;-65
2021/12/12 05:43:15;;;;;;;64.82;6.13;;;;;;;;;;5052065;28;20197;-65
2021/12/12 05:45:42;;;;;;;61.88;6.03;;;;;;;;;;5055414;28;20292;-64
2021/12/12 05:48:10;;;;;;;62.42;5.75;;;;;;;;;;5055046;28;20210;-65
2021/12/12 05:50:38;;;;;;;63.78;6.63;;;;;;;;;;5055370;28;20661;-65
2021/12/12 05:53:06;;;;;;;60.63;5.65;;;;;;;;;;5055236;28;20221;-65
2021/12/12 05:55:34;;;;;;;62.63;7.22;;;;;;;;;;5055249;28;20206;-64
2021/12/12 05:58:05;;;;;;;64.15;6.95;;;;;;;;;;5053142;28;20205;-63
2021/12/12 06:00:34;;;;;;;61.67;5.70;;;;;;;;;;5054009;28;20312;-63
2021/12/12 06:03:02;;;;;;;61.10;6.43;;;;;;;;;;5054468;28;20205;-65
2021/12/12 06:05:32;;;;;;;64.72;7.32;;;;;;;;;;5054576;28;20202;-64
2021/12/12 06:08:00;;;;;;;62.13;6.32;;;;;;;;;;5053924;28;20677;-64
2021/12/12 06:10:27;;;;;;;65.32;6.97;;;;;;;;;;5053508;28;20228;-64
2021/12/12 06:12:55;;;;;;;62.60;6.63;;;;;;;;;;5054409;28;20241;-65
2021/12/12 06:15:27;;;;;;;64.20;7.00;;;;;;;;;;5054268;28;20205;-65
2021/12/12 06:17:54;;;;;;;61.97;5.88;;;;;;;;;;5053755;28;20245;-65
2021/12/12 06:20:21;;;;;;;62.30;5.72;;;;;;;;;;5053851;28;20241;-64
2021/12/12 06:22:49;;;;;;;63.80;7.07;;;;;;;;;;5053823;28;20583;-65
2021/12/12 06:25:16;;;;;;;61.08;5.47;;;;;;;;;;5054259;28;20212;-65
2021/12/12 06:27:43;;;;;;;62.50;7.13;;;;;;;;;;5053717;28;20577;-64
2021/12/12 06:30:14;;;;;;;64.10;6.90;;;;;;;;;;5052520;28;20324;-64
2021/12/12 06:32:44;;;;;;;61.88;6.32;;;;;;;;;;5053839;28;20608;-64
2021/12/12 06:35:11;;;;;;;63.50;7.38;;;;;;;;;;5053828;28;20210;-65
2021/12/12 06:37:39;;;;;;;61.83;6.03;;;;;;;;;;5053344;28;20244;-65
2021/12/12 06:40:07;;;;;;;68.35;6.68;;;;;;;;;;5053770;28;20228;-65
2021/12/12 06:42:34;;;;;;;62.53;6.57;;;;;;;;;;5053565;28;20589;-65
2021/12/12 06:45:02;;;;;;;66.82;6.85;;;;;;;;;;5053866;28;20221;-64
2021/12/12 06:47:29;;;;;;;63.78;6.60;;;;;;;;;;5053168;28;20205;-64
2021/12/12 06:49:59;;;;;;;63.05;6.63;;;;;;;;;;5053219;28;20236;-64
2021/12/12 06:52:26;;;;;;;65.22;8.20;;;;;;;;;;5053240;28;20214;-65
2021/12/12 06:54:54;;;;;;;61.70;6.10;;;;;;;;;;5053126;28;20206;-65
2021/12/12 06:57:21;;;;;;;64.90;6.05;;;;;;;;;;5053274;28;20309;-64
2021/12/12 06:59:50;;;;;;;65.20;7.55;;;;;;;;;;5052998;28;20236;-64
2021/12/12 07:02:18;;;;;;;64.78;7.25;;;;;;;;;;5051712;28;20205;-64
2021/12/12 07:04:45;;;;;;;64.95;8.65;;;;;;;;;;5053249;28;20202;-64
2021/12/12 07:07:15;;;;;;;63.58;6.68;;;;;;;;;;5052953;28;20729;-64
2021/12/12 07:09:43;;;;;;;63.50;7.38;;;;;;;;;;5052934;28;20226;-65
2021/12/12 07:12:12;;;;;;;67.60;8.55;;;;;;;;;;5052793;28;20201;-64
2021/12/12 07:14:40;;;;;;;62.72;7.35;;;;;;;;;;5053147;28;20272;-65
2021/12/12 07:17:08;;;;;;;64.55;8.10;;;;;;;;;;5053080;28;20220;-65
2021/12/12 07:19:37;;;;;;;65.10;7.85;;;;;;;;;;5052680;28;20727;-64
2021/12/12 07:22:05;;;;;;;64.05;8.18;;;;;;;;;;5053037;28;20566;-64
2021/12/12 07:24:34;;;;;;;65.35;6.63;;;;;;;;;;5052830;28;20198;-65
2021/12/12 07:27:01;;;;;;;65.90;8.02;;;;;;;;;;5052850;28;20711;-65
2021/12/12 07:29:29;;;;;;;66.07;8.38;;;;;;;;;;5052073;28;20291;-65
2021/12/12 07:31:57;;;;;;;66.55;8.77;;;;;;;;;;5052500;28;20574;-65
2021/12/12 07:34:24;;;;;;;66.38;9.48;;;;;;;;;;5057836;28;20688;-64
2021/12/12 07:36:53;;;;;;;67.20;8.52;;;;;;;;;;5072632;28;20217;-64
2021/12/12 07:39:22;;;;;;;70.43;10.05;;;;;;;;;;5071886;28;20716;-64
2021/12/12 07:41:52;;;;;;;71.00;9.60;;;;;;;;;;5072367;28;20295;-64
2021/12/12 07:44:20;;;;;;;65.65;8.88;;;;;;;;;;5072639;28;20650;-64
2021/12/12 07:46:48;;;;;;;64.82;8.43;;;;;;;;;;5072783;28;20232;-64
2021/12/12 07:49:16;;;;;;;65.35;8.60;;;;;;;;;;5072231;28;20229;-64
2021/12/12 07:51:43;;;;;;;69.40;9.80;;;;;;;;;;5072328;28;20205;-64
2021/12/12 07:54:11;;;;;;;67.55;8.75;;;;;;;;;;5072398;28;20712;-64
2021/12/12 07:56:40;;;;;;;63.53;8.18;;;;;;;;;;5072218;28;20288;-64
2021/12/12 07:59:10;;;;;;;70.15;9.80;;;;;;;;;;5071817;28;20603;-65
2021/12/12 08:01:37;;;;;;;69.45;10.20;;;;;;;;;;5072296;28;20646;-64
2021/12/12 08:04:05;;;;;;;63.78;8.93;;;;;;;;;;5071924;28;20205;-64
2021/12/12 08:06:33;;;;;;;65.05;8.40;;;;;;;;;;5069568;28;20577;-64
2021/12/12 08:09:00;;;;;;;65.32;9.07;;;;;;;;;;5071509;28;20717;-65
2021/12/12 08:11:30;;;;;;;65.30;9.15;;;;;;;;;;5071070;28;20227;-64
2021/12/12 08:13:58;;;;;;;66.90;8.27;;;;;;;;;;5070869;28;20224;-64
2021/12/12 08:16:26;;;;;;;65.38;8.60;;;;;;;;;;5072111;28;20584;-64
2021/12/12 08:18:54;;;;;;;66.15;8.18;;;;;;;;;;5071547;28;20216;-64
2021/12/12 08:21:22;;;;;;;70.55;9.13;;;;;;;;;;5070304;28;20213;-64
2021/12/12 08:23:50;;;;;;;66.32;9.57;;;;;;;;;;5071699;28;20215;-64
2021/12/12 08:26:17;;;;;;;67.65;10.13;;;;;;;;;;5072287;28;20212;-64
2021/12/12 08:28:44;;;;;;;63.67;7.50;;;;;;;;;;5071450;28;20300;-64
2021/12/12 08:31:12;;;;;;;68.70;8.48;;;;;;;;;;5071553;28;20213;-64
2021/12/12 08:33:40;;;;;;;68.75;8.32;;;;;;;;;;5070930;28;20448;-64
2021/12/12 08:36:08;;;;;;;64.57;7.85;;;;;;;;;;5071800;28;20782;-64
2021/12/12 08:38:35;;;;;;;67.35;7.68;;;;;;;;;;5070029;28;20438;-65
2021/12/12 08:41:02;;;;;;;61.90;6.35;;;;;;;;;;5071520;28;20315;-65
2021/12/12 08:43:31;;;;;;;65.35;7.45;;;;;;;;;;5071541;28;20201;-65
2021/12/12 08:46:00;;;;;;;68.63;6.68;;;;;;;;;;5065827;28;20209;-64
2021/12/12 08:48:30;;;;;;;62.75;6.15;;;;;;;;;;5051136;28;20210;-65
2021/12/12 08:51:00;;;;;;;63.97;7.20;;;;;;;;;;5051712;28;20248;-65
2021/12/12 08:53:28;;;;;;;67.20;6.90;;;;;;;;;;5051741;28;20217;-65
2021/12/12 08:55:56;;;;;;;63.95;6.60;;;;;;;;;;5051379;28;20271;-64
2021/12/12 08:58:25;;;;;;;63.50;5.90;;;;;;;;;;5050933;28;20292;-65
2021/12/12 09:00:54;;;;;;;62.75;6.10;;;;;;;;;;5051282;28;20316;-65
2021/12/12 09:03:23;;;;;;;64.22;7.25;;;;;;;;;;5051374;28;20317;-64
2021/12/12 09:05:50;;;;;;;62.78;6.93;;;;;;;;;;5051250;28;20205;-65
2021/12/12 09:08:23;;;;;;;60.15;5.50;;;;;;;;;;5051140;28;20212;-64
2021/12/12 09:10:57;;;;;;;64.20;6.32;;;;;;;;;;5051330;28;20731;-65
2021/12/12 09:13:27;;;;;;;62.70;5.88;;;;;;;;;;5051239;28;20202;-64
2021/12/12 09:15:57;;;;;;;61.88;6.22;;;;;;;;;;5051336;28;20213;-65
2021/12/12 09:18:28;;;;;;;62.33;5.18;;;;;;;;;;5052156;28;20216;-65
2021/12/12 09:20:58;;;;;;;62.70;6.70;;;;;;;;;;5055419;28;20232;-65
2021/12/12 09:23:29;;;;;;;62.80;5.95;;;;;;;;;;5054806;28;20413;-65
2021/12/12 09:25:58;;;;;;;65.03;6.65;;;;;;;;;;5054662;28;20693;-65
2021/12/12 09:28:29;;;;;;;60.63;6.05;;;;;;;;;;5054699;28;20288;-65
2021/12/12 09:30:57;;;;;;;62.42;6.22;;;;;;;;;;5054952;28;20225;-64
2021/12/12 09:33:27;;;;;;;61.25;5.05;;;;;;;;;;5055028;28;20216;-65
2021/12/12 09:35:55;;;;;;;62.50;5.35;;;;;;;;;;5054743;28;20296;-65
2021/12/12 09:38:25;;;;;;;61.72;5.10;;;;;;;;;;5055245;28;20572;-65
2021/12/12 09:41:10;;;;;;;60.25;5.18;;;;;;;;;;5054773;28;20256;-65
2021/12/12 09:43:45;;;;;;;62.35;6.38;;;;;;;;;;5055054;28;20213;-65
2021/12/12 09:46:27;;;;;;;60.35;5.38;;;;;;;;;;5054626;28;20300;-64
2021/12/12 09:52:11;;;;;;;61.70;5.55;;;;;;;;;;5054888;28;20196;-65
2021/12/12 09:54:40;;;;;;;62.03;4.85;;;;;;;;;;5054808;28;20221;-65
2021/12/12 09:57:12;;;;;;;62.53;5.30;;;;;;;;;;5054469;28;20206;-64
2021/12/12 09:59:51;;;;;;;61.15;5.38;;;;;;;;;;5054623;28;20780;-65
2021/12/12 10:02:26;;;;;;;62.05;5.15;;;;;;;;;;5054678;28;20210;-65
2021/12/12 10:05:03;;;;;;;61.33;4.85;;;;;;;;;;5054516;28;20213;-65
2021/12/12 10:07:35;;;;;;;61.25;5.32;;;;;;;;;;5054310;28;20292;-65
2021/12/12 10:10:06;;;;;;;60.05;4.35;;;;;;;;;;5054640;28;20312;-65
2021/12/12 10:12:36;;;;;;;59.58;4.45;;;;;;;;;;5054447;28;20205;-63
2021/12/12 10:15:07;;;;;;;61.72;4.60;;;;;;;;;;5054242;28;20348;-65
2021/12/12 10:17:38;;;;;;;60.60;4.43;;;;;;;;;;5054127;28;20206;-64
2021/12/12 10:20:07;;;;;;;60.63;5.00;;;;;;;;;;5054345;28;20316;-65
2021/12/12 10:22:37;;;;;;;65.82;5.30;;;;;;;;;;5054173;28;20328;-65
2021/12/12 10:25:06;;;;;;;60.35;4.70;;;;;;;;;;5054144;28;20289;-65
2021/12/12 10:27:37;;;;;;;60.63;4.53;;;;;;;;;;5053560;28;20213;-64
2021/12/12 10:30:10;;;;;;;61.30;5.10;;;;;;;;;;5052598;28;20236;-65
2021/12/12 10:32:42;;;;;;;66.50;7.18;;;;;;;;;;5053986;28;20585;-64
2021/12/12 10:35:11;;;;;;;61.08;5.15;;;;;;;;;;5069500;28;20324;-65
2021/12/12 10:37:42;;;;;;;63.72;4.80;;;;;;;;;;5073116;28;20213;-64
2021/12/12 10:40:12;;;;;;;62.45;4.75;;;;;;;;;;5073352;28;20442;-64
2021/12/12 10:42:44;;;;;;;61.42;4.88;;;;;;;;;;5074021;28;20208;-64
2021/12/12 10:45:15;;;;;;;59.30;3.90;;;;;;;;;;5073336;28;20206;-64
2021/12/12 10:47:50;;;;;;;62.50;4.50;;;;;;;;;;5073288;28;20212;-65
2021/12/12 10:50:20;;;;;;;61.22;4.78;;;;;;;;;;5073712;28;20259;-64
2021/12/12 10:52:51;;;;;;;60.15;4.57;;;;;;;;;;5073881;28;20205;-65
2021/12/12 10:55:21;;;;;;;63.08;4.10;;;;;;;;;;5073286;28;20722;-65
2021/12/12 10:57:54;;;;;;;60.97;4.68;;;;;;;;;;5073187;28;20278;-64
2021/12/12 11:00:23;;;;;;;59.25;4.20;;;;;;;;;;5073604;28;20255;-65
2021/12/12 11:02:56;;;;;;;62.75;5.43;;;;;;;;;;5073750;28;20294;-64
2021/12/12 11:05:28;;;;;;;62.22;4.45;;;;;;;;;;5073296;28;20209;-65
2021/12/12 11:07:59;;;;;;;61.25;4.18;;;;;;;;;;5073182;28;20283;-64
2021/12/12 11:10:29;;;;;;;65.93;6.00;;;;;;;;;;5073336;28;20222;-64
2021/12/12 11:13:00;;;;;;;59.83;4.45;;;;;;;;;;5073443;28;20294;-65
2021/12/12 11:15:29;;;;;;;60.20;4.95;;;;;;;;;;5072720;28;20229;-63
2021/12/12 11:18:00;;;;;;;60.80;4.05;;;;;;;;;;5073048;28;20206;-65
2021/12/12 11:20:28;;;;;;;59.65;4.25;;;;;;;;;;5073120;28;20318;-64
2021/12/12 11:22:57;;;;;;;59.90;4.35;;;;;;;;;;5073348;28;20218;-64
2021/12/12 11:25:27;;;;;;;59.95;4.78;;;;;;;;;;5072774;28;20201;-65
2021/12/12 11:27:58;;;;;;;59.30;4.32;;;;;;;;;;5072690;28;20213;-65
2021/12/12 11:30:28;;;;;;;60.83;4.80;;;;;;;;;;5073028;28;20313;-65
2021/12/12 11:32:56;;;;;;;61.50;3.90;;;;;;;;;;5072845;28;20211;-64
2021/12/12 11:35:25;;;;;;;60.42;4.60;;;;;;;;;;5072252;28;20487;-64
2021/12/12 11:37:53;;;;;;;63.92;4.47;;;;;;;;;;5070784;28;20442;-65
2021/12/12 11:40:22;;;;;;;60.33;4.50;;;;;;;;;;5072476;28;20226;-65
2021/12/12 11:42:53;;;;;;;59.50;4.00;;;;;;;;;;5072581;28;20941;-65
2021/12/12 11:45:23;;;;;;;60.50;4.00;;;;;;;;;;5072838;28;20484;-64
2021/12/12 11:48:00;;;;;;;60.40;4.20;;;;;;;;;;5072468;28;20457;-64
2021/12/12 11:50:31;;;;;;;62.37;5.40;;;;;;;;;;5072874;28;20472;-65
2021/12/12 11:53:00;;;;;;;61.67;5.00;;;;;;;;;;5072718;28;20537;-65
2021/12/12 11:55:29;;;;;;;60.55;4.80;;;;;;;;;;5072639;28;20533;-64
2021/12/12 11:58:01;;;;;;;59.70;4.03;;;;;;;;;;5072182;28;20213;-65
2021/12/12 12:00:31;;;;;;;68.13;6.28;;;;;;;;;;5072491;28;20279;-64
2021/12/12 12:03:10;;;;;;;61.20;4.43;;;;;;;;;;5072570;28;20293;-64
2021/12/12 12:05:38;;;;;;;58.80;3.53;;;;;;;;;;5072390;28;20941;-64
2021/12/12 12:08:14;;;;;;;60.25;4.35;;;;;;;;;;5072137;28;20206;-65
2021/12/12 12:10:47;;;;;;;59.45;3.92;;;;;;;;;;5072260;28;20229;-65
2021/12/12 12:13:48;;;;;;;59.65;3.80;;;;;;;;;;5072529;28;20293;-64
2021/12/12 12:16:20;;;;;;;59.97;3.20;;;;;;;;;;5010220;28;20778;-64
2021/12/12 12:18:51;;;;;;;60.07;3.80;;;;;;;;;;5009885;28;20471;-64
2021/12/12 12:21:22;;;;;;;59.40;3.70;;;;;;;;;;5010271;28;20546;-64
2021/12/12 12:24:12;;;;;;;58.80;3.60;;;;;;;;;;5010335;28;20458;-64
2021/12/12 12:26:52;;;;;;;59.60;3.80;;;;;;;;;;5010101;28;20452;-65
2021/12/12 12:29:40;;;;;;;58.40;3.23;;;;;;;;;;5009737;28;20994;-65
2021/12/12 12:32:22;;;;;;;61.80;4.00;;;;;;;;;;4986095;28;20457;-64
2021/12/12 12:35:08;;;;;;;60.10;3.60;;;;;;;;;;4978691;28;20487;-63
2021/12/12 12:37:53;;;;;;;60.10;4.10;;;;;;;;;;5009512;28;20368;-64
2021/12/12 12:40:39;;;;;;;58.40;3.30;;;;;;;;;;5009859;28;20507;-65
2021/12/12 12:43:39;;;;;;;60.27;4.17;;;;;;;;;;5009993;28;20462;-65
2021/12/12 12:46:27;;;;;;;59.78;3.85;;;;;;;;;;5012715;28;20531;-64
2021/12/12 12:49:17;;;;;;;59.07;3.80;;;;;;;;;;5071702;28;20205;-65
2021/12/12 12:52:02;;;;;;;59.73;3.70;;;;;;;;;;5071912;28;20877;-64
2021/12/12 12:54:31;;;;;;;61.43;4.77;;;;;;;;;;5071179;28;20528;-64
2021/12/12 12:57:17;;;;;;;60.67;5.07;;;;;;;;;;5071617;28;20540;-64
2021/12/12 12:59:51;;;;;;;58.70;3.50;;;;;;;;;;5071721;28;20579;-65
2021/12/12 13:02:20;;;;;;;63.40;3.78;;;;;;;;;;5071944;28;20204;-64
2021/12/12 13:05:02;;;;;;;58.57;3.50;;;;;;;;;;5071541;28;20229;-65
2021/12/12 13:07:32;;;;;;;58.92;3.63;;;;;;;;;;5071443;28;20445;-64
2021/12/12 13:10:01;;;;;;;59.08;3.28;;;;;;;;;;5071845;28;20222;-63
2021/12/12 13:12:46;;;;;;;60.63;3.63;;;;;;;;;;5071559;28;20225;-64
2021/12/12 13:15:22;;;;;;;64.47;3.90;;;;;;;;;;5071482;28;20218;-64
2021/12/12 13:17:56;;;;;;;59.70;3.50;;;;;;;;;;5071486;28;21008;-64
2021/12/12 13:20:29;;;;;;;60.63;3.42;;;;;;;;;;5071855;28;20602;-64
2021/12/12 13:23:03;;;;;;;59.10;3.28;;;;;;;;;;5071835;28;20206;-63
2021/12/12 13:25:33;;;;;;;61.63;3.35;;;;;;;;;;5071642;28;20640;-64
2021/12/12 13:28:06;;;;;;;58.22;2.95;;;;;;;;;;5071244;28;20209;-64
2021/12/12 13:30:42;;;;;;;59.83;3.75;;;;;;;;;;5071615;28;20226;-64
2021/12/12 13:33:18;;;;;;;59.17;3.53;;;;;;;;;;5071592;28;20292;-65
2021/12/12 13:35:58;;;;;;;59.67;3.15;;;;;;;;;;5071029;28;20893;-64
2021/12/12 13:38:28;;;;;;;59.47;3.50;;;;;;;;;;5067615;28;20237;-64
2021/12/12 13:40:59;;;;;;;60.28;3.17;;;;;;;;;;5070456;28;20306;-64
2021/12/12 13:43:31;;;;;;;59.60;4.05;;;;;;;;;;5071162;28;20206;-65
2021/12/12 13:46:03;;;;;;;60.25;4.05;;;;;;;;;;5071005;28;20381;-65
2021/12/12 13:48:48;;;;;;;62.97;3.60;;;;;;;;;;5070865;28;20207;-64
2021/12/12 13:51:18;;;;;;;59.53;3.97;;;;;;;;;;5071134;28;20434;-64
2021/12/12 13:53:54;;;;;;;60.07;4.17;;;;;;;;;;5071237;28;20313;-65
2021/12/12 13:56:24;;;;;;;59.03;3.93;;;;;;;;;;5071124;28;20484;-65
2021/12/12 13:58:57;;;;;;;59.90;3.43;;;;;;;;;;5070188;28;20449;-64
2021/12/12 14:01:27;;;;;;;61.57;4.23;;;;;;;;;;5071054;28;20451;-65
2021/12/12 14:03:57;;;;;;;60.10;4.03;;;;;;;;;;5071704;28;20817;-65
2021/12/12 14:06:27;;;;;;;61.95;3.45;;;;;;;;;;5074325;28;20638;-65
2021/12/12 14:08:58;;;;;;;60.27;4.03;;;;;;;;;;5074246;28;20700;-64
2021/12/12 14:11:27;;;;;;;62.27;4.00;;;;;;;;;;5074228;28;20457;-65
2021/12/12 14:13:55;;;;;;;58.97;3.60;;;;;;;;;;5074750;28;20459;-64
2021/12/12 14:16:26;;;;;;;59.97;3.90;;;;;;;;;;5074431;28;20227;-64
2021/12/12 14:18:56;;;;;;;59.33;3.08;;;;;;;;;;5074197;28;20502;-64
2021/12/12 14:21:24;;;;;;;60.20;4.30;;;;;;;;;;5074372;28;20685;-63
2021/12/12 14:23:52;;;;;;;60.42;3.80;;;;;;;;;;5074316;28;20846;-65
2021/12/12 14:26:23;;;;;;;59.77;3.50;;;;;;;;;;5073883;28;20206;-64
2021/12/12 14:28:52;;;;;;;60.63;3.97;;;;;;;;;;5073842;28;20459;-64
2021/12/12 14:31:22;;;;;;;58.95;3.60;;;;;;;;;;5074106;28;20301;-64
2021/12/12 14:33:53;;;;;;;58.97;3.30;;;;;;;;;;5074271;28;20299;-65
2021/12/12 14:36:22;;;;;;;61.50;4.00;;;;;;;;;;5073111;28;21017;-65
2021/12/12 14:38:51;;;;;;;63.15;4.55;;;;;;;;;;5073355;28;20217;-65
2021/12/12 14:41:32;;;;;;;65.97;3.75;;;;;;;;;;5073960;28;20634;-65
2021/12/12 14:44:00;;;;;;;63.30;4.60;;;;;;;;;;5073896;28;20210;-64
2021/12/12 14:46:29;;;;;;;59.05;3.80;;;;;;;;;;5072834;28;20250;-65
2021/12/12 14:48:58;;;;;;;59.20;4.00;;;;;;;;;;5072923;28;20646;-64
2021/12/12 14:51:26;;;;;;;62.83;4.37;;;;;;;;;;5073390;28;20948;-64
2021/12/12 14:53:56;;;;;;;60.83;4.00;;;;;;;;;;5073755;28;20879;-65
2021/12/12 14:56:28;;;;;;;59.60;4.03;;;;;;;;;;5073274;28;20506;-65
2021/12/12 14:58:57;;;;;;;59.00;3.60;;;;;;;;;;5073090;28;20487;-63
2021/12/12 15:01:26;;;;;;;63.30;3.70;;;;;;;;;;5073379;28;20854;-64
2021/12/12 15:03:55;;;;;;;61.65;3.90;;;;;;;;;;5073744;28;20451;-64
2021/12/12 15:06:27;;;;;;;59.40;4.00;;;;;;;;;;5072715;28;20202;-62